Time;durP1;ratioP1;P1;durP2;ratioP2;P2;SDS_P1;SDS_P2;PMS_P1;PMS_P2;Temp;Humidity;BMP_temperature;BMP_pressure;BME280_temperature;BME280_humidity;BME280_pressure;Samples;Min_cycle;Max_cycle;Signal;HPM_P1;HPM_P2
2022/11/07 00:01:12;;;;;;;24.63;16.30;;;6.60;99.90;;;;;;5007372;28;20076;-59
2022/11/07 00:03:38;;;;;;;28.27;17.48;;;6.60;99.90;;;;;;5006804;28;20372;-59
2022/11/07 00:06:04;;;;;;;23.95;15.75;;;6.60;99.90;;;;;;5006933;28;20033;-60
2022/11/07 00:08:32;;;;;;;24.05;16.90;;;6.60;99.90;;;;;;5007681;28;20074;-60
2022/11/07 00:11:02;;;;;;;27.23;16.05;;;6.70;99.90;;;;;;5007505;28;20072;-60
2022/11/07 00:13:28;;;;;;;25.42;16.40;;;6.70;99.90;;;;;;5007194;28;20433;-60
2022/11/07 00:16:02;;;;;;;21.38;16.55;;;6.80;99.90;;;;;;5007530;28;20033;-60
2022/11/07 00:18:28;;;;;;;25.23;16.92;;;6.80;99.90;;;;;;5007836;28;20061;-59
2022/11/07 00:20:54;;;;;;;19.70;15.70;;;6.80;99.90;;;;;;5008499;28;20026;-59
2022/11/07 00:23:19;;;;;;;23.33;15.13;;;6.80;99.90;;;;;;5006641;28;20091;-61
2022/11/07 00:25:45;;;;;;;21.88;15.77;;;6.80;99.90;;;;;;5008777;28;20862;-61
2022/11/07 00:28:10;;;;;;;19.63;15.38;;;6.90;99.90;;;;;;5005882;28;20025;-61
2022/11/07 00:30:36;;;;;;;25.00;15.77;;;6.90;99.90;;;;;;5006560;28;20026;-61
2022/11/07 00:33:02;;;;;;;19.05;14.82;;;6.90;99.90;;;;;;5006612;28;20050;-61
2022/11/07 00:35:28;;;;;;;19.38;15.18;;;6.90;99.90;;;;;;5008254;28;20029;-60
2022/11/07 00:37:54;;;;;;;20.35;15.40;;;6.90;99.90;;;;;;5008616;28;20768;-60
2022/11/07 00:40:20;;;;;;;17.58;14.73;;;6.90;99.90;;;;;;5006511;28;20129;-60
2022/11/07 00:42:46;;;;;;;24.10;16.10;;;6.90;99.90;;;;;;5007309;28;20125;-60
2022/11/07 00:45:12;;;;;;;24.65;16.35;;;7.00;99.90;;;;;;5005920;28;20540;-59
2022/11/07 00:47:38;;;;;;;19.27;14.55;;;7.00;99.90;;;;;;5000833;28;20057;-60
2022/11/07 00:50:04;;;;;;;18.15;15.40;;;7.00;99.90;;;;;;5006168;28;20053;-59
2022/11/07 00:52:30;;;;;;;19.10;15.02;;;7.00;99.90;;;;;;5007413;28;20026;-59
2022/11/07 00:54:55;;;;;;;19.00;14.15;;;7.00;99.90;;;;;;5007665;28;20088;-61
2022/11/07 00:57:21;;;;;;;22.95;16.00;;;7.00;99.90;;;;;;5007269;28;20652;-60
2022/11/07 00:59:47;;;;;;;16.70;14.00;;;7.00;99.90;;;;;;5006917;28;20022;-60
2022/11/07 01:02:12;;;;;;;18.35;16.13;;;7.00;99.90;;;;;;5007709;28;20415;-61
2022/11/07 01:07:22;;;;;;;21.65;15.45;;;7.00;99.90;;;;;;5006345;28;20037;-59
2022/11/07 01:09:48;;;;;;;20.25;15.00;;;6.90;99.90;;;;;;5007695;28;20030;-58
2022/11/07 01:12:14;;;;;;;18.23;13.98;;;7.00;99.90;;;;;;5005719;28;20030;-60
2022/11/07 01:14:39;;;;;;;19.77;13.23;;;7.00;99.90;;;;;;5003605;28;20026;-60
2022/11/07 01:17:05;;;;;;;23.58;14.57;;;7.00;99.90;;;;;;5006465;28;20109;-60
2022/11/07 01:19:31;;;;;;;18.38;14.27;;;7.00;99.90;;;;;;5007404;28;20667;-60
2022/11/07 01:21:56;;;;;;;29.00;17.27;;;7.00;99.90;;;;;;5007505;28;20113;-59
2022/11/07 01:24:22;;;;;;;15.98;13.65;;;7.00;99.90;;;;;;5007027;28;20498;-59
2022/11/07 01:26:48;;;;;;;17.42;14.25;;;7.00;99.90;;;;;;5007421;28;20490;-59
2022/11/07 01:29:15;;;;;;;16.48;13.50;;;7.00;99.90;;;;;;5006923;28;20025;-59
2022/11/07 01:31:41;;;;;;;21.83;13.30;;;7.10;99.90;;;;;;5006407;28;20052;-60
2022/11/07 01:34:07;;;;;;;16.00;12.80;;;7.10;99.90;;;;;;5006154;28;20034;-60
2022/11/07 01:36:33;;;;;;;19.80;13.95;;;7.10;99.90;;;;;;5005054;28;20037;-60
2022/11/07 01:38:59;;;;;;;15.27;12.88;;;7.10;99.90;;;;;;5006650;28;20033;-60
2022/11/07 01:41:28;;;;;;;16.42;13.35;;;7.10;99.90;;;;;;5008035;28;20024;-60
2022/11/07 01:43:58;;;;;;;14.50;12.68;;;7.20;99.90;;;;;;5007441;28;20030;-60
2022/11/07 01:46:40;;;;;;;13.20;11.82;;;7.20;99.90;;;;;;5004102;28;20022;-60
2022/11/07 01:49:27;;;;;;;15.45;12.90;;;7.20;99.90;;;;;;5004684;28;20041;-60
2022/11/07 01:51:59;;;;;;;14.30;11.70;;;7.20;99.90;;;;;;5005131;28;20030;-61
2022/11/07 01:54:30;;;;;;;12.68;11.40;;;7.30;99.90;;;;;;5006714;28;20018;-60
2022/11/07 01:56:58;;;;;;;12.23;11.02;;;7.30;99.90;;;;;;5007025;28;20021;-60
2022/11/07 01:59:28;;;;;;;11.18;9.70;;;7.30;99.90;;;;;;5008053;28;20064;-60
2022/11/07 02:01:54;;;;;;;10.57;9.48;;;7.30;99.90;;;;;;5006393;28;20524;-60
2022/11/07 02:04:23;;;;;;;10.43;9.43;;;7.40;99.90;;;;;;5009630;28;20022;-60
2022/11/07 02:07:09;;;;;;;10.18;9.18;;;7.40;99.90;;;;;;5011158;28;20026;-60
2022/11/07 02:09:35;;;;;;;11.65;10.45;;;7.50;99.90;;;;;;5010179;28;20026;-59
2022/11/07 02:12:01;;;;;;;8.77;7.97;;;7.50;99.90;;;;;;5009568;28;20072;-59
2022/11/07 02:14:28;;;;;;;10.10;8.75;;;7.50;99.90;;;;;;5010956;28;20022;-60
2022/11/07 02:16:54;;;;;;;10.07;9.18;;;7.60;99.90;;;;;;5011135;28;20172;-60
2022/11/07 02:19:44;;;;;;;8.35;6.10;;;7.60;99.90;;;;;;5010629;28;20129;-60
2022/11/07 02:22:31;;;;;;;10.27;7.30;;;7.70;99.90;;;;;;5004823;28;20045;-60
2022/11/07 02:25:01;;;;;;;8.02;7.03;;;7.80;99.90;;;;;;5010791;28;20351;-61
2022/11/07 02:27:30;;;;;;;7.50;6.40;;;7.80;99.90;;;;;;5010080;28;20522;-60
2022/11/07 02:30:04;;;;;;;6.40;5.85;;;7.90;99.90;;;;;;5009803;28;20044;-60
2022/11/07 02:32:30;;;;;;;7.97;7.20;;;7.90;99.90;;;;;;5009764;28;20078;-60
2022/11/07 02:34:58;;;;;;;6.70;5.88;;;7.90;99.90;;;;;;5009808;28;20027;-60
2022/11/07 02:37:36;;;;;;;8.32;6.93;;;7.90;99.90;;;;;;5009132;28;20042;-59
2022/11/07 02:40:05;;;;;;;8.13;6.20;;;7.90;99.90;;;;;;5009627;28;20049;-60
2022/11/07 02:42:53;;;;;;;7.47;6.78;;;8.00;99.90;;;;;;5010125;28;20395;-60
2022/11/07 02:45:31;;;;;;;7.07;6.38;;;8.00;99.90;;;;;;5009260;28;20029;-61
2022/11/07 02:47:57;;;;;;;9.10;6.82;;;8.00;99.90;;;;;;5008282;28;20066;-62
2022/11/07 02:50:23;;;;;;;7.47;6.22;;;8.00;99.90;;;;;;5008655;28;20037;-61
2022/11/07 02:52:49;;;;;;;7.22;6.30;;;8.00;99.90;;;;;;5007278;28;20033;-60
2022/11/07 02:55:15;;;;;;;7.05;6.35;;;8.00;99.90;;;;;;5010081;28;20494;-61
2022/11/07 02:57:41;;;;;;;7.32;5.40;;;8.00;99.90;;;;;;5001567;28;20058;-61
2022/11/07 03:00:10;;;;;;;7.03;6.32;;;8.00;99.90;;;;;;4990372;28;20505;-59
2022/11/07 03:02:36;;;;;;;5.30;4.80;;;8.10;99.90;;;;;;4989463;28;20084;-61
2022/11/07 03:05:02;;;;;;;6.88;6.15;;;8.10;99.90;;;;;;4988370;28;20034;-61
2022/11/07 03:07:27;;;;;;;5.60;5.05;;;8.10;99.90;;;;;;5000949;28;20038;-60
2022/11/07 03:09:53;;;;;;;8.20;4.65;;;8.10;99.90;;;;;;5009434;28;20033;-60
2022/11/07 03:12:18;;;;;;;5.88;5.38;;;8.10;99.90;;;;;;5008353;28;20113;-60
2022/11/07 03:14:44;;;;;;;5.78;5.28;;;8.10;99.90;;;;;;5007501;28;20417;-60
2022/11/07 03:17:10;;;;;;;5.65;4.95;;;8.20;99.90;;;;;;5008661;28;20039;-60
2022/11/07 03:19:35;;;;;;;6.43;5.45;;;8.10;99.90;;;;;;5008025;28;20053;-61
2022/11/07 03:22:01;;;;;;;5.65;4.93;;;8.10;99.90;;;;;;5007295;28;20026;-60
2022/11/07 03:24:27;;;;;;;6.47;5.10;;;8.10;99.90;;;;;;5009279;28;20486;-60
2022/11/07 03:26:52;;;;;;;5.70;5.22;;;8.10;99.90;;;;;;5008377;28;20030;-61
2022/11/07 03:29:18;;;;;;;6.50;5.90;;;8.10;99.90;;;;;;5006578;28;20109;-61
2022/11/07 03:31:43;;;;;;;7.80;6.20;;;8.10;99.90;;;;;;5007931;28;20438;-59
2022/11/07 03:34:09;;;;;;;6.57;5.68;;;8.10;99.90;;;;;;5007016;28;20034;-60
2022/11/07 03:36:35;;;;;;;6.38;5.78;;;8.10;99.90;;;;;;5007081;28;20398;-60
2022/11/07 03:39:00;;;;;;;6.05;5.50;;;8.10;99.90;;;;;;5008861;28;20030;-60
2022/11/07 03:41:26;;;;;;;8.80;5.88;;;8.10;99.90;;;;;;5007948;28;20076;-61
2022/11/07 03:43:52;;;;;;;6.70;6.03;;;8.10;99.90;;;;;;5007129;28;20061;-59
2022/11/07 03:46:18;;;;;;;8.15;6.13;;;8.10;99.90;;;;;;5006807;28;20034;-60
2022/11/07 03:48:44;;;;;;;6.18;5.50;;;8.10;99.90;;;;;;5006580;28;20044;-60
2022/11/07 03:51:11;;;;;;;8.02;5.82;;;8.10;99.90;;;;;;5007575;28;20022;-60
2022/11/07 03:53:37;;;;;;;6.18;5.05;;;8.10;99.90;;;;;;5006984;28;20105;-59
2022/11/07 03:56:10;;;;;;;7.63;5.45;;;8.10;99.90;;;;;;5007253;28;20033;-60
2022/11/07 03:58:37;;;;;;;7.13;6.43;;;8.10;99.90;;;;;;5004338;28;20031;-61
2022/11/07 04:01:03;;;;;;;7.13;5.95;;;8.10;99.90;;;;;;5008913;28;20402;-60
2022/11/07 04:03:29;;;;;;;5.97;5.47;;;8.10;99.90;;;;;;5006019;28;20164;-60
2022/11/07 04:05:55;;;;;;;7.20;6.40;;;8.10;99.90;;;;;;5004261;28;20500;-61
2022/11/07 04:08:20;;;;;;;7.97;6.47;;;8.10;99.90;;;;;;5005415;28;20029;-60
2022/11/07 04:10:46;;;;;;;7.90;6.45;;;8.10;99.90;;;;;;5005641;28;20038;-59
2022/11/07 04:18:54;;;;;;;8.02;7.22;;;8.00;99.90;;;;;;5006939;28;20494;-59
2022/11/07 04:21:20;;;;;;;10.00;7.18;;;8.00;99.90;;;;;;5008394;28;20029;-59
2022/11/07 04:23:46;;;;;;;7.60;6.90;;;8.00;99.90;;;;;;5008195;28;20067;-60
2022/11/07 04:28:55;;;;;;;7.95;6.93;;;8.00;99.90;;;;;;5008115;28;20053;-60
2022/11/07 04:31:21;;;;;;;7.57;6.78;;;8.10;99.90;;;;;;5005656;28;20482;-61
2022/11/07 04:33:47;;;;;;;8.00;7.20;;;8.10;99.90;;;;;;5007203;28;20061;-60
2022/11/07 04:36:13;;;;;;;9.25;6.97;;;8.10;99.90;;;;;;5004844;28;20037;-59
2022/11/07 04:38:38;;;;;;;9.73;7.65;;;8.10;99.90;;;;;;5008528;28;20104;-60
2022/11/07 04:41:04;;;;;;;11.23;6.35;;;8.10;99.90;;;;;;5007120;28;20046;-61
2022/11/07 04:43:30;;;;;;;8.32;7.53;;;8.10;99.90;;;;;;5008813;28;20084;-61
2022/11/07 04:45:56;;;;;;;8.07;7.28;;;8.10;99.90;;;;;;5007772;28;20478;-60
2022/11/07 04:48:21;;;;;;;7.57;6.53;;;8.10;99.90;;;;;;5006331;28;20044;-60
2022/11/07 04:50:48;;;;;;;7.57;6.85;;;8.10;99.90;;;;;;5008153;28;20022;-59
2022/11/07 04:53:16;;;;;;;10.98;7.57;;;8.10;99.90;;;;;;5007721;28;20018;-61
2022/11/07 04:55:42;;;;;;;9.25;8.25;;;8.10;99.90;;;;;;5008339;28;20117;-59
2022/11/07 04:58:09;;;;;;;8.63;7.82;;;8.10;99.90;;;;;;5007158;28;20026;-59
2022/11/07 05:00:35;;;;;;;12.32;7.75;;;8.20;99.90;;;;;;5006841;28;20029;-61
2022/11/07 05:03:01;;;;;;;10.23;8.70;;;8.20;99.90;;;;;;5008210;28;20026;-61
2022/11/07 05:05:27;;;;;;;9.50;8.50;;;8.20;99.90;;;;;;5006678;28;20461;-61
2022/11/07 05:07:53;;;;;;;8.90;8.05;;;8.20;99.90;;;;;;5005794;28;20497;-61
2022/11/07 05:10:24;;;;;;;13.65;8.52;;;8.20;99.90;;;;;;5007492;28;20030;-61
2022/11/07 05:12:50;;;;;;;10.38;8.00;;;8.20;99.90;;;;;;5007625;28;20026;-60
2022/11/07 05:15:16;;;;;;;9.30;8.02;;;8.20;99.90;;;;;;5007915;28;20018;-59
2022/11/07 05:17:42;;;;;;;8.63;7.53;;;8.30;99.90;;;;;;5006242;28;20105;-60
2022/11/07 05:20:24;;;;;;;10.60;7.43;;;8.30;99.90;;;;;;5006783;28;20249;-60
2022/11/07 05:25:34;;;;;;;10.43;7.68;;;8.30;99.90;;;;;;5007739;28;20571;-60
2022/11/07 05:27:59;;;;;;;7.53;6.63;;;8.30;99.90;;;;;;5007618;28;20104;-60
2022/11/07 05:30:25;;;;;;;8.50;7.72;;;8.30;99.90;;;;;;5008398;28;20161;-61
2022/11/07 05:32:51;;;;;;;8.02;7.32;;;8.20;99.90;;;;;;5005894;28;21245;-59
2022/11/07 05:35:17;;;;;;;8.32;7.53;;;8.20;99.90;;;;;;5008443;28;20137;-59
2022/11/07 05:37:42;;;;;;;8.75;7.78;;;8.20;99.90;;;;;;5007523;28;20152;-61
2022/11/07 05:40:08;;;;;;;7.82;6.00;;;8.20;99.90;;;;;;5011703;28;20152;-60
2022/11/07 05:42:34;;;;;;;7.30;6.60;;;8.20;99.90;;;;;;5011604;28;20072;-60
2022/11/07 05:44:59;;;;;;;8.82;6.57;;;8.20;99.90;;;;;;5011461;28;20465;-61
2022/11/07 05:47:25;;;;;;;19.70;7.32;;;8.20;99.90;;;;;;5011040;28;20040;-61
2022/11/07 05:49:51;;;;;;;14.82;6.60;;;8.20;99.90;;;;;;5010866;28;20053;-59
2022/11/07 05:52:16;;;;;;;12.20;6.82;;;8.20;99.90;;;;;;5011755;28;20714;-60
2022/11/07 05:54:42;;;;;;;9.80;5.97;;;8.20;99.90;;;;;;5010991;28;20037;-61
2022/11/07 05:57:07;;;;;;;8.85;7.45;;;8.20;99.90;;;;;;5010453;28;20447;-61
2022/11/07 05:59:33;;;;;;;7.50;6.80;;;8.20;99.90;;;;;;5010792;28;20076;-60
2022/11/07 06:01:59;;;;;;;7.53;6.72;;;8.20;99.90;;;;;;5009923;28;20097;-60
2022/11/07 06:04:24;;;;;;;6.57;5.90;;;8.20;99.90;;;;;;5009491;28;20030;-60
2022/11/07 06:06:50;;;;;;;10.68;7.43;;;8.30;99.90;;;;;;5010246;28;20034;-60
2022/11/07 06:09:15;;;;;;;8.18;7.32;;;8.30;99.90;;;;;;5011094;28;20064;-60
2022/11/07 06:11:41;;;;;;;7.53;6.28;;;8.30;99.90;;;;;;5009519;28;20434;-60
2022/11/07 06:14:07;;;;;;;9.77;7.28;;;8.30;99.90;;;;;;5011118;28;20034;-60
2022/11/07 06:16:32;;;;;;;7.43;6.30;;;8.30;99.90;;;;;;5009236;28;20050;-60
2022/11/07 06:18:58;;;;;;;6.03;5.43;;;8.30;99.90;;;;;;5010736;28;20020;-61
2022/11/07 06:21:23;;;;;;;6.93;6.22;;;8.30;99.90;;;;;;5009247;28;20025;-59
2022/11/07 06:23:49;;;;;;;10.27;6.60;;;8.30;99.90;;;;;;5008505;28;20022;-60
2022/11/07 06:26:15;;;;;;;7.95;6.90;;;8.30;99.90;;;;;;5008838;28;20030;-60
2022/11/07 06:28:41;;;;;;;7.28;6.57;;;8.30;99.90;;;;;;5010196;28;20026;-60
2022/11/07 06:31:06;;;;;;;7.80;6.50;;;8.30;99.90;;;;;;5009264;28;20026;-59
2022/11/07 06:33:32;;;;;;;8.25;7.53;;;8.30;99.90;;;;;;5009548;28;20400;-60
2022/11/07 06:36:10;;;;;;;12.93;7.10;;;8.40;99.90;;;;;;5010946;28;20034;-61
2022/11/07 06:38:37;;;;;;;7.10;6.40;;;8.40;99.90;;;;;;5010082;28;20137;-61
2022/11/07 06:41:04;;;;;;;7.00;6.30;;;8.40;99.90;;;;;;5009222;28;20058;-61
2022/11/07 06:43:29;;;;;;;9.90;6.15;;;8.40;99.90;;;;;;5009706;28;20034;-59
2022/11/07 06:45:55;;;;;;;6.55;6.03;;;8.40;99.90;;;;;;5008794;28;20030;-61
2022/11/07 06:48:20;;;;;;;6.70;5.40;;;8.50;99.90;;;;;;5008491;28;20042;-59
2022/11/07 06:50:46;;;;;;;6.05;5.38;;;8.50;99.90;;;;;;5008153;28;20053;-61
2022/11/07 06:53:12;;;;;;;21.30;6.30;;;8.50;99.90;;;;;;5010291;28;20982;-60
2022/11/07 06:55:38;;;;;;;7.18;5.25;;;8.50;99.90;;;;;;5009291;28;20080;-60
2022/11/07 06:58:04;;;;;;;6.68;5.78;;;8.50;99.90;;;;;;5006776;28;20109;-60
2022/11/07 07:00:32;;;;;;;7.63;5.32;;;8.60;99.90;;;;;;5010155;28;20018;-59
2022/11/07 07:02:58;;;;;;;5.97;5.43;;;8.60;99.90;;;;;;5007566;28;20045;-59
2022/11/07 07:05:24;;;;;;;5.65;5.13;;;8.60;99.90;;;;;;5010360;28;20030;-61
2022/11/07 07:07:49;;;;;;;5.55;4.47;;;8.70;99.90;;;;;;5006188;28;20033;-60
2022/11/07 07:10:15;;;;;;;7.07;5.25;;;8.70;99.90;;;;;;5010422;28;20061;-61
2022/11/07 07:12:41;;;;;;;6.82;4.47;;;8.70;99.90;;;;;;5009459;28;20756;-61
2022/11/07 07:15:07;;;;;;;5.60;4.75;;;8.70;99.90;;;;;;5006505;28;20498;-60
2022/11/07 07:17:33;;;;;;;5.68;5.03;;;8.80;99.90;;;;;;5009220;28;20099;-61
2022/11/07 07:19:58;;;;;;;8.25;4.97;;;8.80;99.90;;;;;;5009087;28;20506;-60
2022/11/07 07:22:24;;;;;;;5.22;4.32;;;8.80;99.90;;;;;;5008565;28;20049;-61
2022/11/07 07:24:52;;;;;;;7.95;4.32;;;8.80;99.90;;;;;;5008093;28;20026;-60
2022/11/07 07:27:19;;;;;;;4.38;3.97;;;8.80;99.90;;;;;;5009167;28;20026;-61
2022/11/07 07:29:45;;;;;;;5.32;4.32;;;8.90;99.90;;;;;;5009563;28;20022;-61
2022/11/07 07:32:11;;;;;;;3.83;3.42;;;8.90;99.90;;;;;;5007453;28;20053;-60
2022/11/07 07:34:37;;;;;;;6.15;3.92;;;8.90;99.90;;;;;;5007915;28;20072;-60
2022/11/07 07:37:02;;;;;;;6.60;3.92;;;8.90;99.90;;;;;;5008038;28;20057;-61
2022/11/07 07:39:29;;;;;;;5.90;4.20;;;9.00;99.90;;;;;;5008138;28;20080;-61
2022/11/07 07:41:55;;;;;;;4.60;3.75;;;9.00;99.90;;;;;;5009197;28;20508;-60
2022/11/07 07:44:21;;;;;;;8.57;4.07;;;9.10;99.90;;;;;;5008717;28;20053;-60
2022/11/07 07:46:46;;;;;;;5.20;3.63;;;9.20;99.90;;;;;;5007209;28;20034;-60
2022/11/07 07:49:12;;;;;;;4.00;3.28;;;9.30;99.90;;;;;;5008334;28;20376;-59
2022/11/07 07:51:37;;;;;;;4.57;3.42;;;9.50;99.90;;;;;;5006163;28;20364;-59
2022/11/07 07:54:03;;;;;;;4.68;3.22;;;9.50;99.90;;;;;;5005869;28;20084;-61
2022/11/07 07:56:29;;;;;;;4.35;2.50;;;9.60;99.90;;;;;;5007604;28;20098;-60
2022/11/07 07:58:54;;;;;;;5.70;3.50;;;9.70;99.90;;;;;;5008582;28;20112;-58
2022/11/07 08:01:20;;;;;;;3.70;3.20;;;9.80;99.90;;;;;;5007281;28;20824;-59
2022/11/07 08:03:45;;;;;;;5.03;3.45;;;9.90;99.90;;;;;;5008493;28;20041;-60
2022/11/07 08:06:11;;;;;;;6.10;3.28;;;9.90;99.90;;;;;;5008359;28;20054;-60
2022/11/07 08:08:37;;;;;;;3.28;2.65;;;10.00;99.90;;;;;;5005978;28;20022;-60
2022/11/07 08:11:06;;;;;;;4.25;3.00;;;10.00;99.90;;;;;;5008078;28;20056;-61
2022/11/07 08:13:31;;;;;;;5.40;2.70;;;10.20;99.90;;;;;;5006287;28;20490;-60
2022/11/07 08:15:57;;;;;;;5.15;2.58;;;10.20;99.90;;;;;;5007209;28;20037;-60
2022/11/07 08:18:23;;;;;;;4.88;2.88;;;10.30;99.90;;;;;;5008891;28;20026;-60
2022/11/07 08:20:51;;;;;;;4.32;3.40;;;10.30;99.90;;;;;;5008248;28;20030;-61
2022/11/07 08:23:17;;;;;;;5.78;2.33;;;10.40;99.90;;;;;;5009838;28;20033;-61
2022/11/07 08:26:03;;;;;;;3.15;2.33;;;10.40;99.90;;;;;;5005065;28;20117;-60
2022/11/07 08:28:32;;;;;;;5.43;2.40;;;10.70;99.90;;;;;;5003169;28;20042;-61
2022/11/07 08:31:05;;;;;;;3.20;2.20;;;10.80;99.90;;;;;;5005163;28;20030;-60
2022/11/07 08:33:31;;;;;;;3.45;2.10;;;10.90;99.90;;;;;;5000852;28;20027;-61
2022/11/07 08:35:59;;;;;;;4.82;1.88;;;11.00;99.90;;;;;;5002312;28;20049;-60
2022/11/07 08:38:25;;;;;;;3.55;2.10;;;11.10;99.90;;;;;;5000777;28;20117;-61
2022/11/07 08:40:51;;;;;;;6.75;2.22;;;11.10;99.90;;;;;;5003198;28;20700;-60
2022/11/07 08:43:17;;;;;;;3.97;2.08;;;11.20;99.90;;;;;;5000830;28;20050;-61
2022/11/07 08:45:45;;;;;;;5.97;2.20;;;11.20;99.90;;;;;;5002542;28;20053;-61
2022/11/07 08:48:11;;;;;;;5.00;1.95;;;11.40;99.90;;;;;;5005033;28;20120;-59
2022/11/07 08:50:37;;;;;;;4.00;2.10;;;11.50;99.90;;;;;;5003528;28;20128;-60
2022/11/07 08:53:02;;;;;;;2.88;1.83;;;11.60;99.90;;;;;;5003681;28;20038;-60
2022/11/07 08:55:28;;;;;;;4.07;2.25;;;11.70;99.90;;;;;;5004453;28;20105;-60
2022/11/07 08:57:59;;;;;;;4.05;1.80;;;11.80;99.90;;;;;;5002922;28;20072;-59
2022/11/07 09:00:24;;;;;;;4.50;1.73;;;11.90;99.90;;;;;;5005510;28;20038;-61
2022/11/07 09:02:50;;;;;;;4.75;1.75;;;12.00;99.90;;;;;;5005799;28;20482;-60
2022/11/07 09:05:16;;;;;;;3.63;1.30;;;12.10;99.90;;;;;;5007401;28;20513;-59
2022/11/07 09:07:41;;;;;;;3.17;1.45;;;12.20;99.90;;;;;;5007855;28;20034;-61
2022/11/07 09:10:07;;;;;;;3.10;1.40;;;12.40;99.90;;;;;;5006207;28;20053;-59
2022/11/07 09:12:33;;;;;;;2.47;1.20;;;12.50;99.90;;;;;;5006295;28;20026;-61
2022/11/07 09:14:58;;;;;;;4.22;1.30;;;12.70;99.90;;;;;;5007285;28;20117;-61
2022/11/07 09:17:24;;;;;;;4.13;1.30;;;12.80;99.90;;;;;;5006955;28;20414;-60
2022/11/07 09:19:50;;;;;;;4.78;1.40;;;12.80;99.90;;;;;;5006403;28;20030;-60
2022/11/07 09:22:15;;;;;;;5.05;1.13;;;12.80;99.90;;;;;;5004694;28;20038;-61
2022/11/07 09:24:41;;;;;;;4.20;1.70;;;12.90;99.90;;;;;;5006076;28;20041;-59
2022/11/07 09:27:06;;;;;;;4.43;1.05;;;12.90;99.90;;;;;;5007467;28;20029;-60
2022/11/07 09:29:32;;;;;;;2.67;0.93;;;13.00;99.90;;;;;;5007020;28;20080;-60
2022/11/07 09:31:58;;;;;;;2.92;1.10;;;13.10;99.90;;;;;;5005627;28;20383;-60
2022/11/07 09:34:24;;;;;;;4.38;1.45;;;13.10;99.90;;;;;;5004380;28;20061;-60
2022/11/07 09:36:50;;;;;;;6.53;1.33;;;13.20;99.90;;;;;;5005896;28;20049;-60
2022/11/07 09:39:15;;;;;;;3.40;1.00;;;13.20;99.90;;;;;;5005938;28;20022;-60
2022/11/07 09:41:55;;;;;;;3.17;1.15;;;13.20;99.90;;;;;;5004839;28;20077;-60
2022/11/07 09:44:39;;;;;;;4.47;0.90;;;13.30;99.90;;;;;;5007097;28;20497;-61
2022/11/07 09:47:17;;;;;;;3.05;0.98;;;13.40;99.90;;;;;;5004818;28;20033;-59
2022/11/07 09:49:45;;;;;;;5.63;0.93;;;13.50;99.90;;;;;;5004726;28;20041;-60
2022/11/07 09:52:22;;;;;;;6.85;1.40;;;13.60;99.90;;;;;;5007292;28;20077;-61
2022/11/07 09:55:00;;;;;;;2.05;1.00;;;13.70;99.90;;;;;;5006531;28;20443;-60
2022/11/07 09:57:31;;;;;;;6.43;1.15;;;13.80;99.90;;;;;;5007569;28;20163;-59
2022/11/07 10:00:03;;;;;;;2.60;0.80;;;13.90;99.90;;;;;;5002979;28;20568;-61
2022/11/07 10:02:32;;;;;;;;;;;13.70;99.90;;;;;;5006345;28;20055;-59
2022/11/07 10:05:01;;;;;;;3.40;0.90;;;13.60;99.90;;;;;;5005481;28;20285;-60
2022/11/07 10:07:44;;;;;;;3.80;1.02;;;13.50;99.90;;;;;;5006213;28;20054;-60
2022/11/07 10:10:41;;;;;;;2.70;0.90;;;13.60;99.90;;;;;;5005802;28;20115;-60
2022/11/07 10:13:21;;;;;;;3.42;1.10;;;13.50;99.90;;;;;;4986006;28;20050;-59
2022/11/07 10:16:10;;;;;;;2.38;1.02;;;13.60;99.90;;;;;;5004698;28;20038;-60
2022/11/07 10:18:47;;;;;;;3.63;0.90;;;13.70;99.90;;;;;;5004309;28;20124;-60
2022/11/07 10:21:15;;;;;;;3.67;1.00;;;13.60;99.90;;;;;;5005665;28;20109;-59
2022/11/07 10:24:18;;;;;;;1.67;0.75;;;13.50;99.90;;;;;;5008402;28;20026;-60
2022/11/07 10:26:44;;;;;;;3.55;0.95;;;13.30;99.90;;;;;;5004309;28;20131;-60
2022/11/07 10:29:17;;;;;;;2.75;1.00;;;13.20;99.90;;;;;;5008583;28;20601;-61
2022/11/07 10:31:55;;;;;;;2.30;0.88;;;13.10;99.90;;;;;;5008052;28;20152;-60
2022/11/07 10:34:33;;;;;;;1.85;0.90;;;13.10;99.90;;;;;;5006915;28;20037;-61
2022/11/07 10:36:58;;;;;;;3.05;0.90;;;13.00;99.90;;;;;;5004795;28;20046;-60
2022/11/07 10:39:24;;;;;;;2.17;0.93;;;13.10;99.90;;;;;;5004216;28;20041;-60
2022/11/07 10:42:14;;;;;;;4.10;1.20;;;13.10;99.90;;;;;;5005824;28;20030;-60
2022/11/07 10:44:41;;;;;;;3.95;1.10;;;13.20;99.90;;;;;;5005736;28;20102;-60
2022/11/07 10:47:19;;;;;;;4.05;1.55;;;13.30;99.90;;;;;;5007552;28;20042;-60
2022/11/07 10:50:04;;;;;;;3.45;1.17;;;13.40;99.90;;;;;;5001951;28;20084;-60
2022/11/07 10:52:29;;;;;;;3.60;1.10;;;13.50;99.90;;;;;;5007024;28;20402;-59
2022/11/07 10:55:06;;;;;;;3.63;1.23;;;13.50;99.90;;;;;;5004924;28;20048;-60
2022/11/07 10:57:34;;;;;;;3.47;0.90;;;13.60;99.90;;;;;;5004427;28;20033;-61
2022/11/07 11:00:00;;;;;;;3.08;1.20;;;13.60;99.90;;;;;;5004987;28;20021;-60
2022/11/07 11:02:29;;;;;;;2.28;0.75;;;13.60;99.90;;;;;;5004939;28;20028;-60
2022/11/07 11:05:02;;;;;;;4.22;1.08;;;13.50;99.90;;;;;;5003882;28;20513;-60
2022/11/07 11:07:39;;;;;;;4.22;1.67;;;13.40;99.90;;;;;;5005268;28;20100;-60
2022/11/07 11:10:17;;;;;;;2.88;0.98;;;13.40;99.90;;;;;;5006020;28;20574;-60
2022/11/07 11:12:48;;;;;;;2.13;1.10;;;13.20;99.90;;;;;;5004593;28;20034;-61
2022/11/07 11:15:20;;;;;;;4.05;1.20;;;13.10;99.90;;;;;;5006641;28;20117;-61
2022/11/07 11:17:55;;;;;;;4.78;1.05;;;13.00;99.90;;;;;;5004948;28;20041;-61
2022/11/07 11:20:36;;;;;;;3.00;1.23;;;12.90;99.90;;;;;;5008938;28;20038;-60
2022/11/07 11:23:02;;;;;;;;;;;12.90;99.90;;;;;;5009382;28;20113;-60
2022/11/07 11:25:28;;;;;;;3.97;1.20;;;13.00;99.90;;;;;;5006913;28;19910;-60
2022/11/07 11:28:03;;;;;;;2.92;1.38;;;13.00;99.90;;;;;;5009727;28;20029;-60
2022/11/07 11:30:30;;;;;;;7.30;1.60;;;13.00;99.90;;;;;;5008951;28;20498;-59
2022/11/07 11:33:11;;;;;;;5.45;1.27;;;13.00;99.90;;;;;;5009343;28;20597;-60
2022/11/07 11:35:54;;;;;;;2.40;1.30;;;12.90;99.90;;;;;;5007245;28;20109;-60
2022/11/07 11:38:36;;;;;;;1.92;1.15;;;12.80;99.90;;;;;;4990682;28;20778;-60
2022/11/07 11:41:23;;;;;;;4.30;1.20;;;12.70;99.90;;;;;;5007889;28;20061;-59
2022/11/07 11:44:19;;;;;;;1.85;1.25;;;12.60;99.90;;;;;;5009212;28;20653;-60
2022/11/07 11:46:56;;;;;;;2.72;1.10;;;12.60;99.90;;;;;;5009138;28;20041;-59
2022/11/07 11:49:30;;;;;;;2.42;1.20;;;12.60;99.90;;;;;;5008551;28;20037;-60
2022/11/07 11:52:13;;;;;;;2.90;1.52;;;12.60;99.90;;;;;;5009641;28;20038;-59
2022/11/07 11:54:39;;;;;;;2.53;1.20;;;12.60;99.90;;;;;;5007039;28;20514;-61
2022/11/07 11:57:13;;;;;;;4.30;1.30;;;12.70;99.90;;;;;;5009035;28;20022;-59
2022/11/07 11:59:54;;;;;;;5.85;1.27;;;12.70;99.90;;;;;;5006606;28;20526;-59
2022/11/07 12:02:38;;;;;;;7.53;1.00;;;12.90;99.90;;;;;;5008935;28;20072;-60
2022/11/07 12:05:07;;;;;;;2.60;1.33;;;13.00;99.90;;;;;;5007787;28;20775;-60
2022/11/07 12:07:38;;;;;;;4.57;1.13;;;13.20;99.90;;;;;;5001838;28;20129;-60
2022/11/07 12:10:11;;;;;;;;;;;13.40;99.90;;;;;;4996386;28;20030;-60
2022/11/07 12:13:10;;;;;;;1.92;0.82;;;13.40;99.90;;;;;;5004312;28;19917;-59
2022/11/07 12:16:07;;;;;;;4.35;1.10;;;13.40;99.90;;;;;;5006737;28;20033;-58
2022/11/07 12:18:40;;;;;;;3.60;1.00;;;13.50;99.90;;;;;;5007336;28;20121;-59
2022/11/07 12:21:24;;;;;;;4.88;1.50;;;13.60;99.90;;;;;;5006487;28;20029;-60
2022/11/07 12:24:34;;;;;;;1.50;0.90;;;13.60;99.90;;;;;;5007270;28;20145;-61
2022/11/07 12:27:09;;;;;;;4.53;1.83;;;13.50;99.90;;;;;;4993420;28;20046;-61
2022/11/07 12:29:45;;;;;;;7.00;1.10;;;13.40;99.90;;;;;;5007560;28;20490;-60
2022/11/07 12:32:10;;;;;;;2.25;1.00;;;13.30;99.90;;;;;;5007564;28;20034;-59
2022/11/07 12:34:56;;;;;;;6.65;1.40;;;13.20;99.90;;;;;;5004163;28;20080;-60
2022/11/07 12:37:59;;;;;;;4.82;1.38;;;13.20;99.90;;;;;;5004888;28;20037;-60
2022/11/07 12:41:00;;;;;;;5.85;1.55;;;13.20;99.90;;;;;;5006908;28;20136;-60
2022/11/07 12:43:45;;;;;;;;;;;13.20;99.90;;;;;;5006046;28;20108;-60
2022/11/07 12:46:27;;;;;;;2.97;1.25;;;13.20;99.90;;;;;;5005353;28;19917;-60
2022/11/07 12:49:08;;;;;;;3.38;1.35;;;13.20;99.90;;;;;;5006858;28;20121;-60
2022/11/07 12:51:43;;;;;;;1.67;1.00;;;13.10;99.90;;;;;;5006512;28;20100;-59
2022/11/07 12:54:15;;;;;;;5.13;1.30;;;13.00;99.90;;;;;;5006498;28;20045;-60
2022/11/07 12:56:41;;;;;;;;;;;12.90;99.90;;;;;;5007709;28;20035;-58
2022/11/07 12:59:19;;;;;;;4.10;1.27;;;12.80;99.90;;;;;;5008527;28;20364;-60
2022/11/07 13:01:59;;;;;;;3.70;1.67;;;12.70;99.90;;;;;;5005885;28;20060;-60
2022/11/07 13:04:45;;;;;;;5.03;1.30;;;12.70;99.90;;;;;;5005795;28;20030;-60
2022/11/07 13:07:11;;;;;;;5.15;1.42;;;12.70;99.90;;;;;;4973182;28;20034;-60
2022/11/07 13:10:25;;;;;;;4.75;1.27;;;12.70;99.90;;;;;;5007122;28;20022;-59
2022/11/07 13:12:59;;;;;;;4.07;1.58;;;12.70;99.90;;;;;;4982965;28;20125;-58
2022/11/07 13:15:26;;;;;;;4.07;1.38;;;12.70;99.90;;;;;;5003884;28;20552;-60
2022/11/07 13:17:51;;;;;;;4.70;1.17;;;12.70;99.90;;;;;;5002825;28;20403;-58